Time;durP1;ratioP1;P1;durP2;ratioP2;P2;SDS_P1;SDS_P2;PMS_P1;PMS_P2;Temp;Humidity;BMP_temperature;BMP_pressure;BME280_temperature;BME280_humidity;BME280_pressure;Samples;Min_cycle;Max_cycle;Signal;HPM_P1;HPM_P2
2023/01/29 00:01:40;;;;;;;38.87;21.53;;;-4.30;99.90;;;;;;5036693;28;20200;-49
2023/01/29 00:04:06;;;;;;;41.57;22.60;;;-4.30;99.90;;;;;;5036410;28;20557;-50
2023/01/29 00:06:32;;;;;;;37.43;21.53;;;-4.30;99.90;;;;;;5036328;28;20188;-50
2023/01/29 00:08:57;;;;;;;42.33;22.77;;;-4.30;99.90;;;;;;5036597;28;20266;-50
2023/01/29 00:11:24;;;;;;;43.40;23.23;;;-4.30;99.90;;;;;;5036552;28;20167;-50
2023/01/29 00:17:11;;;;;;;38.33;23.20;;;-4.30;99.90;;;;;;5036185;28;20387;-50
2023/01/29 00:19:37;;;;;;;39.00;22.27;;;-4.40;99.90;;;;;;5036280;28;20500;-49
2023/01/29 00:22:03;;;;;;;38.57;23.00;;;-4.40;99.90;;;;;;5037275;28;20203;-50
2023/01/29 00:24:28;;;;;;;40.00;23.13;;;-4.40;99.90;;;;;;5036396;28;20214;-50
2023/01/29 00:26:55;;;;;;;41.63;24.53;;;-4.40;99.90;;;;;;5036926;28;20252;-50
2023/01/29 00:29:21;;;;;;;44.67;23.87;;;-4.40;99.90;;;;;;5036258;28;20454;-50
2023/01/29 00:31:46;;;;;;;43.13;23.50;;;-4.40;99.90;;;;;;5035999;28;20176;-49
2023/01/29 00:34:12;;;;;;;46.73;23.80;;;-4.40;99.90;;;;;;5037028;28;20197;-50
2023/01/29 00:36:38;;;;;;;47.57;23.87;;;-4.50;99.90;;;;;;5036032;28;20186;-48
2023/01/29 00:39:09;;;;;;;46.20;24.93;;;-4.40;99.90;;;;;;5037291;28;20500;-50
2023/01/29 00:47:29;;;;;;;41.50;22.53;;;-4.50;99.90;;;;;;5037925;28;20946;-49
2023/01/29 00:49:50;;;;;;;45.20;23.33;;;-4.50;99.90;;;;;;5034981;28;20459;-49
2023/01/29 00:52:25;;;;;;;44.53;24.07;;;-4.50;99.90;;;;;;5035610;28;20452;-50
2023/01/29 00:54:59;;;;;;;41.43;22.63;;;-4.50;99.90;;;;;;5035914;28;20198;-50
2023/01/29 00:57:26;;;;;;;44.37;23.50;;;-4.50;99.90;;;;;;5035397;28;20475;-50
2023/01/29 00:59:51;;;;;;;44.37;24.20;;;-4.40;99.90;;;;;;5035728;28;20456;-49
2023/01/29 01:05:02;;;;;;;46.73;25.30;;;-4.40;99.90;;;;;;5035485;28;20208;-51
2023/01/29 01:07:29;;;;;;;46.63;26.00;;;-4.40;99.90;;;;;;5035339;28;20846;-50
2023/01/29 01:12:39;;;;;;;47.63;25.13;;;-4.40;99.90;;;;;;5035284;28;20455;-50
2023/01/29 01:15:05;;;;;;;43.97;24.80;;;-4.40;99.90;;;;;;5035122;28;20806;-49
2023/01/29 01:17:30;;;;;;;42.73;23.43;;;-4.40;99.90;;;;;;5034934;28;20181;-49
2023/01/29 01:19:56;;;;;;;44.90;23.67;;;-4.30;99.90;;;;;;5017270;28;20272;-50
2023/01/29 01:22:21;;;;;;;48.60;24.83;;;-4.40;99.90;;;;;;5049241;22;20260;-47
2023/01/29 01:24:47;;;;;;;46.47;24.57;;;-4.40;99.90;;;;;;5035745;28;20550;-47
2023/01/29 01:27:13;;;;;;;48.33;26.10;;;-4.40;99.90;;;;;;5035308;28;20185;-48
2023/01/29 01:29:39;;;;;;;45.67;23.50;;;-4.50;99.90;;;;;;5035658;28;20194;-47
2023/01/29 01:32:05;;;;;;;47.00;24.77;;;-4.40;99.90;;;;;;5017384;28;20489;-46
2023/01/29 01:34:31;;;;;;;44.97;23.57;;;-4.50;99.90;;;;;;5035518;28;20831;-47
2023/01/29 01:36:56;;;;;;;48.10;24.37;;;-4.50;99.90;;;;;;5035241;28;20178;-47
2023/01/29 01:39:25;;;;;;;42.33;23.10;;;-4.50;99.90;;;;;;5035464;28;20664;-46
2023/01/29 01:41:54;;;;;;;44.27;23.97;;;-4.50;99.90;;;;;;5035250;28;20188;-47
2023/01/29 01:44:53;;;;;;;47.83;23.63;;;-4.50;99.90;;;;;;5034718;28;20951;-48
2023/01/29 01:47:40;;;;;;;46.77;26.10;;;-4.60;99.90;;;;;;5017249;28;20408;-47
2023/01/29 01:50:21;;;;;;;51.20;26.50;;;-4.60;99.90;;;;;;5034943;28;20442;-49
2023/01/29 01:52:52;;;;;;;49.30;25.60;;;-4.60;99.90;;;;;;5035229;28;20427;-49
2023/01/29 01:55:23;;;;;;;49.50;26.43;;;-4.60;99.90;;;;;;5035026;28;20749;-49
2023/01/29 01:57:54;;;;;;;50.70;27.37;;;-4.70;99.90;;;;;;5017032;28;20829;-49
2023/01/29 02:00:23;;;;;;;50.60;25.50;;;-4.70;99.90;;;;;;5035340;28;20392;-48
2023/01/29 02:11:16;;;;;;;45.93;26.07;;;-4.80;99.90;;;;;;5035086;28;20419;-49
2023/01/29 02:13:41;;;;;;;50.80;26.27;;;-4.80;99.90;;;;;;5037267;28;20428;-46
2023/01/29 02:16:07;;;;;;;48.47;26.90;;;-4.80;99.90;;;;;;5017047;28;20408;-45
2023/01/29 02:18:36;;;;;;;52.17;27.23;;;-4.80;99.90;;;;;;5017856;28;20182;-47
2023/01/29 02:21:39;;;;;;;57.47;28.17;;;-4.80;99.90;;;;;;5017028;28;20185;-48
2023/01/29 02:24:18;;;;;;;52.80;27.37;;;-4.70;99.90;;;;;;5016596;28;20525;-48
2023/01/29 02:26:56;;;;;;;53.07;27.20;;;-4.70;99.90;;;;;;5034897;28;20439;-47
2023/01/29 02:29:41;;;;;;;54.37;26.67;;;-4.70;99.90;;;;;;5034987;28;20440;-49
2023/01/29 02:32:18;;;;;;;50.40;25.67;;;-4.80;99.90;;;;;;5034212;28;20443;-47
2023/01/29 02:38:06;;;;;;;52.73;26.77;;;-4.80;99.90;;;;;;5034588;28;20474;-48
2023/01/29 02:40:53;;;;;;;50.57;27.83;;;-4.80;99.90;;;;;;5033990;28;20792;-49
2023/01/29 02:43:38;;;;;;;54.47;28.73;;;-4.80;99.90;;;;;;5034219;28;20501;-47
2023/01/29 02:46:14;;;;;;;54.00;27.20;;;-4.80;99.90;;;;;;5016798;28;20887;-47
2023/01/29 02:49:04;;;;;;;54.10;27.10;;;-4.80;99.90;;;;;;5034542;28;20431;-46
2023/01/29 02:51:55;;;;;;;53.53;27.00;;;-4.80;99.90;;;;;;5034695;28;20453;-46
2023/01/29 02:54:29;;;;;;;53.93;28.17;;;-4.80;99.90;;;;;;5034764;28;20476;-46
2023/01/29 02:56:58;;;;;;;58.87;28.97;;;-4.80;99.90;;;;;;5016863;28;20403;-47
2023/01/29 02:59:35;;;;;;;56.40;29.13;;;-4.80;99.90;;;;;;5034646;28;20446;-48
2023/01/29 03:02:11;;;;;;;49.07;25.57;;;-4.80;99.90;;;;;;5034434;28;20504;-47
2023/01/29 03:04:42;;;;;;;51.00;26.50;;;-4.80;99.90;;;;;;5034403;28;20448;-49
2023/01/29 03:07:41;;;;;;;59.13;27.47;;;-4.80;99.90;;;;;;5034261;28;20748;-49
2023/01/29 03:10:00;;;;;;;55.50;25.70;;;-4.70;99.90;;;;;;5033850;28;20420;-45
2023/01/29 03:12:34;;;;;;;56.83;28.17;;;-4.70;99.90;;;;;;5034110;28;20807;-46
2023/01/29 03:15:13;;;;;;;51.37;25.30;;;-4.70;99.90;;;;;;5034296;28;20408;-47
2023/01/29 03:17:50;;;;;;;54.83;26.10;;;-4.70;99.90;;;;;;5034182;28;20764;-47
2023/01/29 03:20:20;;;;;;;56.80;27.57;;;-4.70;99.90;;;;;;5034211;28;20422;-47
2023/01/29 03:22:51;;;;;;;57.00;27.40;;;-4.70;99.90;;;;;;5033732;28;20463;-47
2023/01/29 03:34:05;;;;;;;54.13;26.87;;;-4.80;99.90;;;;;;5038113;28;20476;-49
2023/01/29 03:36:44;;;;;;;57.27;27.60;;;-4.80;99.90;;;;;;5027619;28;20539;-47
2023/01/29 03:39:10;;;;;;;58.67;27.77;;;-4.70;99.90;;;;;;5037679;28;20475;-48
2023/01/29 03:41:57;;;;;;;61.50;28.97;;;-4.70;99.90;;;;;;5037372;28;20418;-47
2023/01/29 03:44:39;;;;;;;59.40;26.37;;;-4.60;99.90;;;;;;5037594;28;20441;-48
2023/01/29 03:47:25;;;;;;;64.30;29.07;;;-4.60;99.90;;;;;;5019540;28;20834;-49
2023/01/29 03:49:51;;;;;;;62.23;27.57;;;-4.50;99.90;;;;;;5037497;28;20400;-50
2023/01/29 03:52:38;;;;;;;67.50;30.03;;;-4.50;99.90;;;;;;5037750;28;20436;-48
2023/01/29 03:55:35;;;;;;;63.23;27.70;;;-4.40;99.90;;;;;;5038995;28;20592;-46
2023/01/29 03:58:16;;;;;;;64.20;28.67;;;-4.30;99.90;;;;;;5037577;28;20404;-48
2023/01/29 04:00:53;;;;;;;68.27;30.33;;;-4.20;99.90;;;;;;5037972;28;20400;-46
2023/01/29 04:03:32;;;;;;;67.93;28.83;;;-4.20;99.90;;;;;;5037154;28;21012;-46
2023/01/29 04:06:12;;;;;;;60.83;28.07;;;-4.10;99.90;;;;;;5037837;28;20875;-47
2023/01/29 04:08:55;;;;;;;71.30;31.70;;;-4.00;99.90;;;;;;5037404;28;20401;-46
2023/01/29 04:11:23;;;;;;;66.20;29.27;;;-4.00;99.90;;;;;;5037546;28;20396;-46
2023/01/29 04:13:50;;;;;;;66.17;29.03;;;-4.00;99.90;;;;;;5037922;28;20444;-46
2023/01/29 04:16:21;;;;;;;61.20;28.07;;;-3.90;99.90;;;;;;5037850;28;20412;-46
2023/01/29 04:18:47;;;;;;;71.90;31.03;;;-3.90;99.90;;;;;;5037052;28;20401;-46
2023/01/29 04:21:14;;;;;;;68.30;28.50;;;-3.90;99.90;;;;;;5036869;28;20445;-47
2023/01/29 04:23:40;;;;;;;70.50;30.70;;;-3.80;99.90;;;;;;5036936;28;20808;-46
2023/01/29 04:26:14;;;;;;;72.20;31.30;;;-3.80;99.90;;;;;;5037120;28;20442;-47
2023/01/29 04:29:04;;;;;;;63.27;28.40;;;-3.70;99.90;;;;;;5037341;28;20618;-46
2023/01/29 04:31:38;;;;;;;71.30;30.07;;;-3.70;99.90;;;;;;5036960;28;20404;-46
2023/01/29 04:34:24;;;;;;;70.67;28.70;;;-3.70;99.90;;;;;;5036825;28;20406;-45
2023/01/29 04:36:59;;;;;;;70.47;28.27;;;-3.60;99.90;;;;;;5036029;28;20488;-47
2023/01/29 04:39:48;;;;;;;77.13;31.37;;;-3.70;99.90;;;;;;5036846;28;20465;-47
2023/01/29 04:42:24;;;;;;;67.87;29.30;;;-3.70;99.90;;;;;;5037230;28;20427;-45
2023/01/29 04:45:22;;;;;;;73.73;30.73;;;-3.70;99.90;;;;;;5037080;28;20484;-46
2023/01/29 04:47:59;;;;;;;73.43;29.00;;;-3.70;99.90;;;;;;5022459;28;20416;-46
2023/01/29 04:50:36;;;;;;;73.30;28.30;;;-3.70;99.90;;;;;;5036566;28;20391;-46
2023/01/29 04:53:20;;;;;;;71.90;28.67;;;-3.80;99.90;;;;;;5036154;28;20482;-48
2023/01/29 04:55:53;;;;;;;66.67;27.40;;;-3.70;99.90;;;;;;5036546;28;20392;-46
2023/01/29 04:58:42;;;;;;;69.57;27.57;;;-3.80;99.90;;;;;;5036502;28;20759;-47
2023/01/29 05:01:13;;;;;;;66.97;29.03;;;-3.80;99.90;;;;;;5036613;28;20404;-46
2023/01/29 05:03:41;;;;;;;71.30;30.13;;;-3.90;99.90;;;;;;5036432;28;20514;-48
2023/01/29 05:06:08;;;;;;;67.73;28.60;;;-3.90;99.90;;;;;;5036665;28;20948;-46
2023/01/29 05:08:37;;;;;;;66.27;27.13;;;-3.90;99.90;;;;;;5019027;28;20520;-46
2023/01/29 05:11:04;;;;;;;67.83;29.17;;;-3.90;99.90;;;;;;5036207;28;20413;-47
2023/01/29 05:13:32;;;;;;;69.23;27.17;;;-3.90;99.90;;;;;;5017665;28;20448;-48
2023/01/29 05:16:18;;;;;;;74.03;28.83;;;-3.90;99.90;;;;;;5036101;28;20448;-48
2023/01/29 05:18:45;;;;;;;59.50;26.97;;;-3.80;99.90;;;;;;5035316;28;20405;-48
2023/01/29 05:21:10;;;;;;;67.03;27.93;;;-3.80;99.90;;;;;;5034986;28;20511;-49
2023/01/29 05:23:36;;;;;;;67.87;29.03;;;-3.80;99.90;;;;;;5034614;28;20562;-48
2023/01/29 05:26:02;;;;;;;71.40;27.77;;;-3.70;99.90;;;;;;5017092;28;20195;-47
2023/01/29 05:28:28;;;;;;;64.43;27.57;;;-3.70;99.90;;;;;;5017118;28;20177;-47
2023/01/29 05:30:55;;;;;;;71.93;29.03;;;-3.70;99.90;;;;;;5035041;28;20416;-49
2023/01/29 05:33:24;;;;;;;60.73;26.93;;;-3.60;99.90;;;;;;5017397;28;20261;-48
2023/01/29 05:35:50;;;;;;;71.13;29.07;;;-3.50;99.90;;;;;;5034949;28;20784;-48
2023/01/29 05:38:16;;;;;;;70.40;29.53;;;-3.50;99.90;;;;;;5017086;28;20485;-47
2023/01/29 05:40:42;;;;;;;62.63;28.43;;;-3.40;99.90;;;;;;5034735;28;20464;-48
2023/01/29 05:43:20;;;;;;;66.77;28.60;;;-3.30;99.90;;;;;;5034890;28;20504;-47
2023/01/29 05:45:56;;;;;;;68.33;29.00;;;-3.30;99.90;;;;;;5017170;28;20645;-49
2023/01/29 05:48:23;;;;;;;61.33;26.43;;;-3.20;99.90;;;;;;5016646;28;20417;-48
2023/01/29 05:50:48;;;;;;;70.97;28.50;;;-3.20;99.90;;;;;;5034645;28;20459;-49
2023/01/29 05:53:14;;;;;;;61.80;26.23;;;-3.10;99.90;;;;;;5016522;28;20474;-47
2023/01/29 05:55:44;;;;;;;61.17;26.87;;;-3.10;99.90;;;;;;5016697;28;20185;-45
2023/01/29 05:58:10;;;;;;;60.23;26.00;;;-3.00;99.90;;;;;;5034640;28;20155;-47
2023/01/29 06:00:35;;;;;;;57.40;26.10;;;-3.00;99.90;;;;;;5034277;28;20425;-47
2023/01/29 06:03:01;;;;;;;56.13;24.93;;;-2.90;99.90;;;;;;5034310;28;20197;-47
2023/01/29 06:05:26;;;;;;;52.03;23.20;;;-2.90;99.90;;;;;;5016448;28;20239;-47
2023/01/29 06:07:52;;;;;;;53.60;23.77;;;-2.80;99.90;;;;;;5034821;28;20182;-47
2023/01/29 06:10:18;;;;;;;57.37;24.83;;;-2.80;99.90;;;;;;5034176;28;20266;-47
2023/01/29 06:12:43;;;;;;;62.67;26.33;;;-2.80;99.90;;;;;;5016432;28;20214;-48
2023/01/29 06:15:10;;;;;;;55.60;25.90;;;-2.70;99.90;;;;;;5034104;28;20542;-47
2023/01/29 06:17:36;;;;;;;62.23;26.47;;;-2.70;99.90;;;;;;5034531;28;20176;-48
2023/01/29 06:20:02;;;;;;;64.27;29.57;;;-2.70;99.90;;;;;;5034154;28;20429;-46
2023/01/29 06:22:28;;;;;;;71.90;29.73;;;-2.60;99.90;;;;;;5016269;28;20223;-47
2023/01/29 06:24:53;;;;;;;66.90;28.27;;;-2.60;99.90;;;;;;5034047;28;20448;-47
2023/01/29 06:27:19;;;;;;;63.60;27.37;;;-2.60;99.90;;;;;;5034104;28;20184;-49
2023/01/29 06:29:45;;;;;;;62.40;26.63;;;-2.60;99.90;;;;;;5033867;28;20302;-48
2023/01/29 06:32:10;;;;;;;64.23;28.23;;;-2.60;99.90;;;;;;5034752;28;20208;-46
2023/01/29 06:34:36;;;;;;;69.67;28.57;;;-2.60;99.90;;;;;;5033901;28;20183;-50
2023/01/29 06:37:01;;;;;;;72.70;30.20;;;-2.50;99.90;;;;;;5033924;28;20177;-48
2023/01/29 06:39:27;;;;;;;73.00;31.43;;;-2.50;99.90;;;;;;5033651;28;20211;-47
2023/01/29 06:41:52;;;;;;;71.77;28.20;;;-2.50;99.90;;;;;;5033786;28;20279;-48
2023/01/29 06:44:18;;;;;;;72.90;30.00;;;-2.60;99.90;;;;;;5016094;28;20211;-49
2023/01/29 06:46:44;;;;;;;72.47;31.80;;;-2.60;99.90;;;;;;5033634;28;20183;-46
2023/01/29 06:49:09;;;;;;;62.70;28.20;;;-2.60;99.90;;;;;;5033496;28;20262;-46
2023/01/29 06:51:35;;;;;;;70.60;31.17;;;-2.50;99.90;;;;;;5033481;28;20274;-49
2023/01/29 06:54:00;;;;;;;78.87;30.50;;;-2.50;99.90;;;;;;5033683;28;20621;-48
2023/01/29 06:56:26;;;;;;;80.80;29.63;;;-2.50;99.90;;;;;;5033849;28;20174;-48
2023/01/29 06:58:52;;;;;;;73.07;29.13;;;-2.50;99.90;;;;;;5015347;28;20188;-48
2023/01/29 07:01:17;;;;;;;69.10;28.00;;;-2.40;99.90;;;;;;5033055;28;20654;-48
2023/01/29 07:03:43;;;;;;;75.30;29.20;;;-2.40;99.90;;;;;;5033470;28;20207;-47
2023/01/29 07:06:09;;;;;;;74.03;29.97;;;-2.40;99.90;;;;;;5033850;28;20177;-50
2023/01/29 07:08:38;;;;;;;71.77;30.33;;;-2.30;99.90;;;;;;5033274;28;20174;-47
2023/01/29 07:11:06;;;;;;;69.33;28.10;;;-2.30;99.90;;;;;;5033300;28;20412;-48
2023/01/29 07:13:32;;;;;;;57.23;24.27;;;-2.30;99.90;;;;;;5033202;28;20462;-49
2023/01/29 07:15:59;;;;;;;72.03;28.50;;;-2.30;99.90;;;;;;5015538;28;20459;-48
2023/01/29 07:18:26;;;;;;;62.97;25.50;;;-2.20;99.90;;;;;;5033630;28;20825;-50
2023/01/29 07:20:52;;;;;;;65.63;26.83;;;-2.20;99.90;;;;;;5034774;28;20410;-47
2023/01/29 07:23:17;;;;;;;73.97;29.23;;;-2.20;99.90;;;;;;5016657;28;20538;-49
2023/01/29 07:25:43;;;;;;;67.80;28.50;;;-2.20;99.90;;;;;;5033710;28;20182;-50
2023/01/29 07:28:09;;;;;;;70.97;30.37;;;-2.20;99.90;;;;;;5033259;28;20180;-46
2023/01/29 07:30:35;;;;;;;60.00;26.20;;;-2.20;99.90;;;;;;5033100;28;20200;-48
2023/01/29 07:33:03;;;;;;;62.67;26.50;;;-2.10;99.90;;;;;;5015453;28;20626;-46
2023/01/29 07:35:28;;;;;;;64.37;27.43;;;-2.10;99.90;;;;;;5033242;28;20788;-47
2023/01/29 07:37:54;;;;;;;61.43;25.60;;;-2.10;99.90;;;;;;5033175;28;20426;-46
2023/01/29 07:40:19;;;;;;;60.83;26.80;;;-2.10;99.90;;;;;;5033059;28;20190;-47
2023/01/29 07:42:45;;;;;;;56.60;24.00;;;-2.00;99.90;;;;;;5033197;28;20201;-43
2023/01/29 07:45:12;;;;;;;55.60;26.37;;;-2.00;99.90;;;;;;5033184;28;20229;-42
2023/01/29 07:47:38;;;;;;;65.80;29.17;;;-2.00;99.90;;;;;;5033191;28;20180;-44
2023/01/29 07:50:04;;;;;;;62.30;26.47;;;-2.00;99.90;;;;;;5033084;28;20420;-44
2023/01/29 07:52:31;;;;;;;65.80;28.20;;;-1.90;99.90;;;;;;5032987;28;20570;-42
2023/01/29 07:54:57;;;;;;;59.33;23.20;;;-1.90;99.90;;;;;;5035503;28;20422;-42
2023/01/29 07:57:23;;;;;;;60.03;25.83;;;-1.80;99.90;;;;;;5015492;28;20931;-42
2023/01/29 07:59:48;;;;;;;51.63;22.83;;;-1.80;99.90;;;;;;5035040;28;20185;-42
2023/01/29 08:02:14;;;;;;;38.53;18.23;;;-1.80;99.90;;;;;;5015165;28;20680;-44
2023/01/29 08:04:40;;;;;;;56.73;25.43;;;-1.70;99.90;;;;;;5033061;28;20201;-43
2023/01/29 08:07:05;;;;;;;58.37;26.63;;;-1.70;99.90;;;;;;5032930;28;20168;-43
2023/01/29 08:09:31;;;;;;;55.23;24.07;;;-1.70;99.90;;;;;;5033285;28;20195;-43
2023/01/29 08:11:57;;;;;;;52.93;22.90;;;-1.70;99.90;;;;;;5034481;28;20227;-42
2023/01/29 08:14:23;;;;;;;63.87;27.27;;;-1.60;99.90;;;;;;5036597;28;20176;-42
2023/01/29 08:16:49;;;;;;;55.37;26.23;;;-1.60;99.90;;;;;;5036675;28;20173;-44
2023/01/29 08:19:14;;;;;;;52.20;23.67;;;-1.60;99.90;;;;;;5036493;28;20271;-44
2023/01/29 08:21:40;;;;;;;57.03;24.77;;;-1.60;99.90;;;;;;5036441;28;20523;-42
2023/01/29 08:24:06;;;;;;;42.47;17.50;;;-1.50;99.90;;;;;;5035963;28;20299;-43
2023/01/29 08:26:32;;;;;;;53.87;25.07;;;-1.50;99.90;;;;;;5036388;28;20213;-44
2023/01/29 08:28:57;;;;;;;58.30;26.40;;;-1.40;99.90;;;;;;5035999;28;20497;-42
2023/01/29 08:31:23;;;;;;;54.97;24.97;;;-1.40;99.90;;;;;;5036281;28;20208;-43
2023/01/29 08:33:48;;;;;;;55.60;26.57;;;-1.40;99.90;;;;;;5018147;28;20193;-42
2023/01/29 08:36:14;;;;;;;42.77;20.07;;;-1.40;99.90;;;;;;5035907;28;20177;-43
2023/01/29 08:38:40;;;;;;;55.40;25.47;;;-1.30;99.90;;;;;;5018005;28;20652;-42
2023/01/29 08:41:06;;;;;;;61.13;26.57;;;-1.20;99.90;;;;;;5035728;28;20779;-42
2023/01/29 08:43:34;;;;;;;54.40;26.23;;;-1.20;99.90;;;;;;5035598;28;20201;-42
2023/01/29 08:45:59;;;;;;;51.17;25.63;;;-1.20;99.90;;;;;;5036287;28;20478;-43
2023/01/29 08:48:26;;;;;;;60.97;28.27;;;-1.10;99.90;;;;;;5017905;28;20424;-44
2023/01/29 08:50:51;;;;;;;55.10;25.07;;;-1.10;99.90;;;;;;5035988;28;20233;-42
2023/01/29 08:53:18;;;;;;;56.97;24.50;;;-1.00;99.90;;;;;;5035837;28;20827;-43
2023/01/29 08:55:45;;;;;;;49.83;22.87;;;-0.90;99.90;;;;;;5035602;28;20224;-43
2023/01/29 08:58:11;;;;;;;53.97;25.83;;;-0.90;99.90;;;;;;5035610;28;20430;-45
2023/01/29 09:00:37;;;;;;;53.90;25.07;;;-0.80;99.90;;;;;;5017660;28;20420;-42
2023/01/29 09:03:03;;;;;;;47.23;22.87;;;-0.80;99.90;;;;;;5035339;28;20196;-43
2023/01/29 09:05:29;;;;;;;49.43;23.90;;;-0.70;99.90;;;;;;5035734;28;20447;-42
2023/01/29 09:07:58;;;;;;;59.97;28.40;;;-0.70;99.90;;;;;;5035407;28;20165;-43
2023/01/29 09:10:23;;;;;;;59.17;26.13;;;-0.60;99.90;;;;;;5035283;28;20411;-43
2023/01/29 09:12:49;;;;;;;59.77;28.93;;;-0.60;99.90;;;;;;5035647;28;20446;-45
2023/01/29 09:15:14;;;;;;;56.07;26.83;;;-0.60;99.90;;;;;;5035167;28;20185;-43
2023/01/29 09:17:40;;;;;;;55.77;24.73;;;-0.60;99.90;;;;;;5035098;28;20208;-43
2023/01/29 09:20:06;;;;;;;40.60;18.80;;;-0.50;99.90;;;;;;5035277;28;20570;-44
2023/01/29 09:22:32;;;;;;;52.07;24.87;;;-0.50;99.90;;;;;;5034320;28;20210;-43
2023/01/29 09:24:58;;;;;;;48.90;24.27;;;-0.40;99.90;;;;;;5017111;28;21030;-42
2023/01/29 09:27:24;;;;;;;38.33;18.03;;;-0.40;99.90;;;;;;5035189;28;20616;-42
2023/01/29 09:29:50;;;;;;;57.17;27.40;;;-0.30;99.90;;;;;;5034804;28;20174;-45
2023/01/29 09:32:15;;;;;;;54.93;23.47;;;-0.30;99.90;;;;;;5034911;28;20528;-43
2023/01/29 09:34:41;;;;;;;58.40;27.87;;;-0.20;99.90;;;;;;5017038;28;20185;-43
2023/01/29 09:37:06;;;;;;;55.33;25.13;;;-0.20;99.90;;;;;;5034652;28;20177;-43
2023/01/29 09:39:32;;;;;;;54.87;24.73;;;-0.10;99.90;;;;;;5034881;28;20185;-45
2023/01/29 09:42:25;;;;;;;50.50;24.37;;;-0.10;99.90;;;;;;5034849;28;20283;-43
2023/01/29 09:45:25;;;;;;;30.90;14.43;;;-0.10;99.90;;;;;;5034761;28;20204;-42
2023/01/29 09:47:56;;;;;;;52.80;24.23;;;0.00;99.90;;;;;;5030542;28;20424;-43
2023/01/29 09:50:30;;;;;;;56.50;25.13;;;0.00;99.90;;;;;;5034478;28;20385;-42
2023/01/29 09:53:24;;;;;;;46.40;23.23;;;0.00;99.90;;;;;;5034267;28;20952;-42
2023/01/29 09:55:56;;;;;;;48.53;24.53;;;0.10;99.90;;;;;;5016085;28;20457;-42
2023/01/29 09:58:37;;;;;;;50.93;24.63;;;0.20;99.90;;;;;;5034544;28;20393;-43
2023/01/29 10:01:32;;;;;;;53.17;24.33;;;0.30;99.90;;;;;;5016443;28;20418;-44
2023/01/29 10:04:15;;;;;;;47.63;24.47;;;0.30;99.90;;;;;;5034240;28;20909;-43
2023/01/29 10:07:15;;;;;;;49.33;23.50;;;0.40;99.90;;;;;;5016326;28;20425;-46
2023/01/29 10:09:52;;;;;;;22.33;10.83;;;0.40;99.90;;;;;;5034558;28;20426;-44
2023/01/29 10:12:46;;;;;;;51.77;26.63;;;0.50;99.90;;;;;;5033949;28;20428;-44
2023/01/29 10:15:37;;;;;;;50.17;24.43;;;0.50;99.90;;;;;;5033976;28;20917;-44
2023/01/29 10:18:12;;;;;;;47.43;22.30;;;0.60;99.90;;;;;;5034257;28;20408;-45
2023/01/29 10:20:48;;;;;;;50.57;24.37;;;0.60;99.90;;;;;;5033875;28;20412;-44
2023/01/29 10:23:28;;;;;;;55.07;26.83;;;0.60;99.90;;;;;;5033809;28;20463;-44
2023/01/29 10:25:54;;;;;;;51.50;23.73;;;0.70;99.90;;;;;;5034115;28;20402;-44
2023/01/29 10:28:32;;;;;;;53.30;26.93;;;0.70;99.90;;;;;;5016666;28;20417;-45
2023/01/29 10:31:08;;;;;;;52.60;25.47;;;0.70;99.90;;;;;;5033755;28;20412;-42
2023/01/29 10:33:44;;;;;;;47.07;22.90;;;0.80;99.90;;;;;;5015792;28;20452;-42
2023/01/29 10:36:19;;;;;;;48.37;24.70;;;0.80;99.90;;;;;;5033623;28;20435;-43
2023/01/29 10:38:48;;;;;;;55.10;26.83;;;0.90;99.90;;;;;;5000524;28;20174;-44
2023/01/29 10:41:18;;;;;;;49.20;25.27;;;0.90;99.90;;;;;;5033941;28;20456;-43
2023/01/29 10:43:43;;;;;;;53.53;26.20;;;0.90;99.90;;;;;;5033642;28;20464;-44
2023/01/29 10:46:36;;;;;;;52.17;25.40;;;1.00;99.90;;;;;;5033822;28;20230;-45
2023/01/29 10:49:21;;;;;;;53.97;26.63;;;1.00;99.90;;;;;;5033896;28;20521;-42
2023/01/29 10:52:10;;;;;;;50.70;21.33;;;1.10;99.90;;;;;;5033743;28;20397;-45
2023/01/29 10:55:09;;;;;;;49.83;24.53;;;1.10;99.90;;;;;;5034024;28;20443;-45
2023/01/29 10:57:45;;;;;;;52.67;26.13;;;1.20;99.90;;;;;;5033694;28;20722;-43
2023/01/29 11:00:49;;;;;;;50.43;25.33;;;1.20;99.90;;;;;;5033627;28;20168;-44
2023/01/29 11:03:25;;;;;;;45.60;22.13;;;1.30;99.90;;;;;;4989564;28;20866;-43
2023/01/29 11:06:11;;;;;;;50.93;24.77;;;1.30;99.90;;;;;;5033650;28;20832;-41
2023/01/29 11:08:58;;;;;;;51.00;25.00;;;1.40;99.90;;;;;;5033386;28;20255;-45
2023/01/29 11:11:45;;;;;;;51.37;25.53;;;1.50;99.90;;;;;;5033622;28;20175;-45
2023/01/29 11:14:22;;;;;;;48.20;23.43;;;1.50;99.90;;;;;;5017596;28;20185;-45
2023/01/29 11:16:48;;;;;;;50.90;24.90;;;1.50;99.90;;;;;;5037016;28;20221;-43
2023/01/29 11:19:15;;;;;;;48.57;23.63;;;1.60;99.90;;;;;;5019345;28;20196;-42
2023/01/29 11:21:52;;;;;;;45.43;23.57;;;1.60;99.90;;;;;;5034961;28;20608;-42
2023/01/29 11:24:18;;;;;;;43.17;22.23;;;1.60;99.90;;;;;;5032591;28;20227;-44
2023/01/29 11:26:47;;;;;;;48.93;23.87;;;1.70;99.90;;;;;;5033153;28;20614;-44
2023/01/29 11:29:42;;;;;;;46.93;22.97;;;1.70;99.90;;;;;;5014935;28;20216;-42
2023/01/29 11:32:27;;;;;;;43.83;20.63;;;1.80;99.90;;;;;;5033046;28;20645;-43
2023/01/29 11:35:19;;;;;;;48.33;24.97;;;1.80;99.90;;;;;;5032882;28;20230;-43
2023/01/29 11:37:46;;;;;;;46.13;23.23;;;1.90;99.90;;;;;;5032798;28;20237;-43
2023/01/29 11:40:17;;;;;;;47.63;23.27;;;1.90;99.90;;;;;;5032337;28;20196;-45
2023/01/29 11:42:47;;;;;;;42.43;21.73;;;2.00;99.90;;;;;;5032392;28;20204;-44
2023/01/29 11:45:37;;;;;;;48.53;24.10;;;2.00;99.90;;;;;;5032499;28;20287;-44
2023/01/29 11:48:03;;;;;;;45.70;24.23;;;2.00;99.90;;;;;;5036663;28;20192;-44
2023/01/29 11:50:32;;;;;;;47.10;23.10;;;2.10;99.90;;;;;;5036640;28;20202;-42
2023/01/29 11:53:02;;;;;;;43.00;21.50;;;2.20;99.90;;;;;;5036392;28;20239;-44
2023/01/29 11:55:31;;;;;;;48.53;25.67;;;2.20;99.90;;;;;;5036464;28;20187;-43
2023/01/29 11:58:20;;;;;;;49.53;24.87;;;2.20;99.90;;;;;;5036591;28;20216;-45
2023/01/29 12:00:49;;;;;;;46.03;23.93;;;2.20;99.90;;;;;;5036420;28;20511;-43
2023/01/29 12:03:38;;;;;;;43.00;24.33;;;2.30;99.90;;;;;;5036353;28;20200;-43
2023/01/29 12:06:20;;;;;;;42.67;21.43;;;2.30;99.90;;;;;;5036266;28;20188;-45
2023/01/29 12:08:55;;;;;;;44.27;22.70;;;2.30;99.90;;;;;;5036414;28;20169;-44
2023/01/29 12:11:30;;;;;;;41.40;20.63;;;2.40;99.90;;;;;;5036915;28;20172;-44
2023/01/29 12:13:59;;;;;;;42.23;21.97;;;2.50;99.90;;;;;;5018185;28;20201;-46
2023/01/29 12:16:45;;;;;;;42.00;20.67;;;2.50;99.90;;;;;;5036099;28;20177;-44
2023/01/29 12:19:30;;;;;;;38.97;19.83;;;2.50;99.90;;;;;;4994740;28;20195;-43
2023/01/29 12:22:09;;;;;;;43.73;22.43;;;2.50;99.90;;;;;;5037529;28;20165;-43
2023/01/29 12:24:51;;;;;;;39.00;20.57;;;2.50;99.90;;;;;;5037349;28;20219;-46
2023/01/29 12:27:29;;;;;;;37.97;19.77;;;2.50;99.90;;;;;;5036980;28;20169;-43
2023/01/29 12:30:26;;;;;;;39.37;20.17;;;2.50;99.90;;;;;;5036955;28;20230;-44
2023/01/29 12:33:03;;;;;;;39.30;21.20;;;2.60;99.90;;;;;;5035420;28;20270;-45
2023/01/29 12:35:34;;;;;;;41.20;21.93;;;2.60;99.90;;;;;;5036782;28;20169;-45
2023/01/29 12:38:18;;;;;;;39.20;20.10;;;2.60;99.90;;;;;;5037175;28;20184;-45
2023/01/29 12:40:54;;;;;;;39.03;20.70;;;2.60;99.90;;;;;;5018694;28;20172;-44
2023/01/29 12:43:54;;;;;;;37.33;19.27;;;2.60;99.90;;;;;;5036593;28;20243;-45
2023/01/29 12:46:29;;;;;;;39.13;20.30;;;2.60;99.90;;;;;;5018908;28;20177;-44
2023/01/29 12:48:57;;;;;;;37.23;19.90;;;2.60;99.90;;;;;;5036800;28;20584;-43
2023/01/29 12:51:30;;;;;;;43.50;21.80;;;2.60;99.90;;;;;;5036149;28;20211;-44
2023/01/29 12:54:05;;;;;;;40.73;21.70;;;2.70;99.90;;;;;;5036582;28;20215;-43
2023/01/29 12:56:49;;;;;;;39.27;20.70;;;2.70;99.90;;;;;;5036284;28;20179;-44
2023/01/29 12:59:32;;;;;;;38.60;20.57;;;2.70;99.90;;;;;;5036189;28;20177;-45
2023/01/29 13:02:18;;;;;;;41.50;21.53;;;2.70;99.90;;;;;;5036582;28;20219;-44
2023/01/29 13:04:52;;;;;;;42.07;22.23;;;2.70;99.90;;;;;;5036540;28;20193;-44
2023/01/29 13:07:26;;;;;;;36.13;20.93;;;2.80;99.90;;;;;;5036272;28;20172;-44
2023/01/29 13:10:00;;;;;;;39.20;20.27;;;2.80;99.90;;;;;;5036255;28;20197;-45
2023/01/29 13:12:26;;;;;;;39.53;19.87;;;2.80;99.90;;;;;;5036298;28;20203;-44
2023/01/29 13:15:02;;;;;;;40.03;19.67;;;2.80;99.90;;;;;;5036386;28;20200;-47
2023/01/29 13:17:46;;;;;;;40.83;20.77;;;2.90;99.90;;;;;;5035904;28;20166;-44
2023/01/29 13:20:18;;;;;;;34.50;19.30;;;2.90;99.90;;;;;;5035601;28;20180;-46
2023/01/29 13:22:46;;;;;;;37.17;19.97;;;2.90;99.90;;;;;;5035266;28;20263;-44
2023/01/29 13:25:17;;;;;;;35.07;18.60;;;2.90;99.90;;;;;;5035188;28;20247;-49
2023/01/29 13:27:47;;;;;;;37.50;19.23;;;3.00;99.90;;;;;;5035511;28;20162;-51
2023/01/29 13:30:34;;;;;;;38.30;20.40;;;3.00;99.90;;;;;;5035200;28;20185;-49
2023/01/29 13:33:09;;;;;;;33.07;19.07;;;3.00;99.90;;;;;;5035044;28;20283;-49